Map

Track Data

SID SEASON NUMBER BASIN SUBBASIN NAME ISO_TIME NATURE LAT LON WMO_WIND WMO_PRES WMO_AGENCY TRACK_TYPE DIST2LAND LANDFALL IFLAG USA_AGENCY USA_ATCF_ID USA_LAT USA_LON USA_RECORD USA_STATUS USA_WIND USA_PRES USA_SSHS USA_R34_NE USA_R34_SE USA_R34_SW USA_R34_NW USA_R50_NE USA_R50_SE USA_R50_SW USA_R50_NW USA_R64_NE USA_R64_SE USA_R64_SW USA_R64_NW USA_POCI USA_ROCI USA_RMW USA_EYE TOKYO_LAT TOKYO_LON TOKYO_GRADE TOKYO_WIND TOKYO_PRES TOKYO_R50_DIR TOKYO_R50_LONG TOKYO_R50_SHORT TOKYO_R30_DIR TOKYO_R30_LONG TOKYO_R30_SHORT TOKYO_LAND CMA_LAT CMA_LON CMA_CAT CMA_WIND CMA_PRES HKO_LAT HKO_LON HKO_CAT HKO_WIND HKO_PRES NEWDELHI_LAT NEWDELHI_LON NEWDELHI_GRADE NEWDELHI_WIND NEWDELHI_PRES NEWDELHI_CI NEWDELHI_DP NEWDELHI_POCI REUNION_LAT REUNION_LON REUNION_TYPE REUNION_WIND REUNION_PRES REUNION_TNUM REUNION_CI REUNION_RMW REUNION_R34_NE REUNION_R34_SE REUNION_R34_SW REUNION_R34_NW REUNION_R50_NE REUNION_R50_SE REUNION_R50_SW REUNION_R50_NW REUNION_R64_NE REUNION_R64_SE REUNION_R64_SW REUNION_R64_NW BOM_LAT BOM_LON BOM_TYPE BOM_WIND BOM_PRES BOM_TNUM BOM_CI BOM_RMW BOM_R34_NE BOM_R34_SE BOM_R34_SW BOM_R34_NW BOM_R50_NE BOM_R50_SE BOM_R50_SW BOM_R50_NW BOM_R64_NE BOM_R64_SE BOM_R64_SW BOM_R64_NW BOM_ROCI BOM_POCI BOM_EYE BOM_POS_METHOD BOM_PRES_METHOD NADI_LAT NADI_LON NADI_CAT NADI_WIND NADI_PRES WELLINGTON_LAT WELLINGTON_LON WELLINGTON_WIND WELLINGTON_PRES DS824_LAT DS824_LON DS824_STAGE DS824_WIND DS824_PRES TD9636_LAT TD9636_LON TD9636_STAGE TD9636_WIND TD9636_PRES TD9635_LAT TD9635_LON TD9635_WIND TD9635_PRES TD9635_ROCI NEUMANN_LAT NEUMANN_LON NEUMANN_CLASS NEUMANN_WIND NEUMANN_PRES MLC_LAT MLC_LON MLC_CLASS MLC_WIND MLC_PRES USA_GUST BOM_GUST BOM_GUST_PER REUNION_GUST REUNION_GUST_PER USA_SEAHGT USA_SEARAD_NE USA_SEARAD_SE USA_SEARAD_SW USA_SEARAD_NW STORM_SPEED STORM_DIR
1982272N11156 1982 83 WP MM MAC 1982-09-29 00:00:00 NR 11.3000 155.600 main 1652 1652 __________O___ -1 11.3000 155.600 0 1 0
1982272N11156 1982 83 WP MM MAC 1982-09-29 03:00:00 NR 11.2845 155.578 main 1652 1649 __________P___ -1 11.2845 155.578 0 1 245
1982272N11156 1982 83 WP MM MAC 1982-09-29 06:00:00 NR 11.2706 155.545 main 1649 1649 __________P___ -1 11.2706 155.545 0 1 252
1982272N11156 1982 83 WP MM MAC 1982-09-29 09:00:00 NR 11.2596 155.494 main 1649 1645 __________P___ -1 11.2596 155.494 0 1 262
1982272N11156 1982 83 WP MM MAC 1982-09-29 12:00:00 NR 11.2530 155.413 main 1645 1642 __________P___ -1 11.2530 155.413 0 2 268
1982272N11156 1982 83 WP MM MAC 1982-09-29 15:00:00 NR 11.2524 155.293 main 1642 1636 __________P___ -1 11.2524 155.293 0 3 271
1982272N11156 1982 83 WP MM MAC 1982-09-29 18:00:00 NR 11.2591 155.124 main 1636 1629 __________P___ -1 11.2591 155.124 0 4 273
1982272N11156 1982 83 WP MM MAC 1982-09-29 21:00:00 NR 11.2745 154.896 main 1629 1621 __________P___ -1 11.2745 154.896 0 5 275
1982272N11156 1982 83 WP MM MAC 1982-09-30 00:00:00 NR 11.3000 154.600 main 1621 1613 __________O___ -1 11.3000 154.600 0 7 275
1982272N11156 1982 83 WP MM MAC 1982-09-30 03:00:00 NR 11.3363 154.233 main 1610 1608 __________P___ -1 11.3363 154.233 0 8 276
1982272N11156 1982 83 WP MM MAC 1982-09-30 06:00:00 NR 11.3826 153.821 main 1612 1603 __________P___ -1 11.3826 153.821 0 8 277
1982272N11156 1982 83 WP MM MAC 1982-09-30 09:00:00 NR 11.4375 153.399 main 1603 1602 __________P___ -1 11.4375 153.399 0 8 278
1982272N11156 1982 83 WP MM MAC 1982-09-30 12:00:00 NR 11.5000 153.000 main 1607 1604 __________O___ -1 11.5000 153.000 0 7 281
1982272N11156 1982 83 WP MM MAC 1982-09-30 15:00:00 NR 11.5715 152.687 main 1614 1610 __________P___ -1 11.5715 152.687 0 6 284
1982272N11156 1982 83 WP MM MAC 1982-09-30 18:00:00 NR 11.6495 152.400 main 1610 1610 __________P___ -1 11.6495 152.400 0 6 285
1982272N11156 1982 83 WP MM MAC 1982-09-30 21:00:00 NR 11.7277 152.112 main 1618 1618 __________P___ -1 11.7277 152.112 0 6 284
1982272N11156 1982 83 WP MM MAC 1982-10-01 00:00:00 NR 11.8000 151.800 main 1627 1625 O_________O___ jtwc_wp WP231982 11.8000 151.800 20 -1 11.8000 151.800 1 20 7 281
1982272N11156 1982 83 WP MM MAC 1982-10-01 03:00:00 NR 11.8567 151.422 main 1629 1593 P_________P___ WP231982 11.8476 151.400 20 -1 11.8612 151.433 1 21 9 264
1982272N11156 1982 83 WP MM MAC 1982-10-01 06:00:00 TS 11.7066 150.906 1004 tokyo main 1593 1583 OOO_______P___ jtwc_wp WP231982 11.9000 151.000 20 -1 11.0000 150.000 2 1004 0 0 0 11.0000 151.000 0 19 1003 11.9149 151.037 1 22 9 262
1982272N11156 1982 83 WP MM MAC 1982-10-01 09:00:00 TS 11.7270 150.480 main 1583 1579 PPP_______P___ WP231982 11.9574 150.600 22 -1 11.2576 149.733 2 1003 0 0 11.2674 150.700 0 19 1003 11.9612 150.623 1 23 8 276
1982272N11156 1982 83 WP MM MAC 1982-10-01 12:00:00 TS 11.7857 150.071 1002 tokyo main 1585 1578 OOO_______O___ jtwc_wp WP231982 12.0000 150.200 25 -1 11.5000 149.500 2 1002 0 0 0 11.5000 150.300 0 19 1003 12.0000 150.200 1 25 8 279
1982272N11156 1982 83 WP MM MAC 1982-10-01 15:00:00 TS 11.8508 149.668 main 1589 1582 PPP_______P___ WP231982 11.9999 149.807 27 -1 11.7149 149.315 2 1001 0 0 11.6727 149.750 0 21 1002 12.0156 149.798 1 26 8 281
1982272N11156 1982 83 WP MM MAC 1982-10-01 18:00:00 TS 11.9417 149.256 1000 tokyo main 1582 1581 OOOO______P___ jtwc_wp WP231982 12.0000 149.400 30 -1 11.9000 149.100 2 1000 0 0 0 11.8000 149.200 1 23 1002 12.1000 149.000 TD 25 1002 12.0270 149.387 1 27 8 282
1982272N11156 1982 83 WP MM MAC 1982-10-01 21:00:00 TS 12.0182 148.880 main 1588 1586 PPPP______P___ WP231982 12.0199 148.965 30 -1 12.0725 148.788 2 1000 0 0 11.8922 148.842 1 26 1001 12.0949 148.813 TD 30 998 12.0499 148.957 1 28 8 282
1982272N11156 1982 83 WP MM MAC 1982-10-02 00:00:00 TS 12.1000 148.479 1000 tokyo main 1595 1594 OOOO______O___ jtwc_wp WP231982 12.1000 148.500 30 -1 12.2000 148.400 2 1000 0 0 0 12.0000 148.500 1 29 1000 12.1000 148.500 TS 35 995 12.1000 148.500 1 30 9 283
1982272N11156 1982 83 WP MM MAC 1982-10-02 03:00:00 TS 12.2163 147.997 main 1603 1603 PPPP______P___ WP231982 12.2999 148.015 35 0 12.2575 147.965 2 997 0 0 12.2000 148.023 1 33 996 12.1277 147.987 TS 37 994 12.1963 147.996 1 33 10 284
1982272N11156 1982 83 WP MM MAC 1982-10-02 06:00:00 TS 12.3440 147.473 40 994 tokyo main 1613 1613 OOOO______P___ jtwc_wp WP231982 12.5000 147.500 40 0 12.3000 147.500 3 40 994 0 9 100 100 0 12.4000 147.500 2 38 993 12.2000 147.400 TS 40 993 12.3201 147.465 1 37 10 284
1982272N11156 1982 83 WP MM MAC 1982-10-02 09:00:00 TS 12.4622 146.962 main 1635 1635 PPPP______P___ WP231982 12.5800 146.950 42 0 12.3999 147.058 3 40 992 0 9 100 100 12.5299 147.000 2 38 993 12.3424 146.878 TS 42 991 12.4588 146.927 1 41 10 282
1982272N11156 1982 83 WP MM MAC 1982-10-02 12:00:00 TS 12.5600 146.460 40 990 tokyo main 1647 1647 OOOO______O___ jtwc_wp WP231982 12.6000 146.400 45 0 12.5000 146.600 3 40 990 0 9 100 100 0 12.6000 146.500 2 38 993 12.5000 146.400 TS 45 990 12.6000 146.400 2 45 10 278
1982272N11156 1982 83 WP MM MAC 1982-10-02 15:00:00 TS 12.6036 145.977 main 1648 1648 PPPP______P___ WP231982 12.5699 145.885 47 0 12.5349 146.107 3 50 987 0 9 112 112 12.5924 145.992 2 43 987 12.5998 146.000 TS 47 987 12.7207 145.898 2 48 9 277
1982272N11156 1982 83 WP MM MAC 1982-10-02 18:00:00 TS 12.6684 145.502 60 985 tokyo main 1662 1662 OOOO______P___ jtwc_wp WP231982 12.6000 145.400 50 0 12.6000 145.600 4 60 985 9 40 40 9 125 125 0 12.6000 145.500 3 48 982 12.7000 145.600 STS 50 985 12.8422 145.412 2 52 10 284
1982272N11156 1982 83 WP MM MAC 1982-10-02 21:00:00 TS 12.8285 145.023 main 1678 1678 PPPP______P___ WP231982 12.8349 144.935 55 0 12.7849 145.093 4 60 977 9 45 45 9 137 137 12.7199 145.043 3 53 976 12.8351 145.100 STS 52 977 12.9676 144.945 2 56 10 291
1982272N11156 1982 83 WP MM MAC 1982-10-03 00:00:00 TS 13.0200 144.560 60 970 tokyo main 1706 1706 OOOO______O___ jtwc_wp WP231982 13.1000 144.500 60 0 13.0000 144.600 4 60 970 9 50 50 9 150 150 0 12.9000 144.600 3 58 970 13.0000 144.600 STS 55 970 13.1000 144.500 2 60 9 292
1982272N11156 1982 83 WP MM MAC 1982-10-03 03:00:00 TS 13.1768 144.123 main 1736 1736 PPPP______P___ WP231982 13.2074 144.092 65 1 13.1500 144.127 4 70 965 9 50 50 9 150 150 13.0925 144.135 3 63 965 13.1999 144.185 STS 62 965 13.2344 144.074 2 66 9 291
1982272N11156 1982 83 WP MM MAC 1982-10-03 06:00:00 TS 13.3354 143.714 80 960 tokyo main 1754 1754 OOOO______P___ jtwc_wp WP231982 13.3000 143.700 70 1 13.3000 143.700 5 80 960 9 50 50 9 150 150 0 13.3000 143.700 4 68 961 13.4000 143.800 T 70 960 13.3771 143.670 2 72 8 294
1982272N11156 1982 83 WP MM MAC 1982-10-03 09:00:00 TS 13.5102 143.336 main 1782 1782 PPPP______P___ WP231982 13.4775 143.292 77 1 13.4923 143.350 5 80 957 9 50 50 9 150 150 13.4998 143.350 4 72 957 13.5499 143.407 T 75 957 13.5313 143.280 2 78 8 296
1982272N11156 1982 83 WP MM MAC 1982-10-03 12:00:00 TS 13.7000 142.960 80 955 tokyo main 1794 1790 OOOO______O___ jtwc_wp WP231982 13.7000 142.900 85 2 13.7000 143.000 5 80 955 9 50 50 9 150 150 0 13.7000 143.000 4 77 954 13.7000 143.000 T 80 955 13.7000 142.900 4 85 9 297
1982272N11156 1982 83 WP MM MAC 1982-10-03 15:00:00 TS 13.9056 142.543 main 1800 1800 PPPP______P___ WP231982 13.9574 142.550 87 2 13.8926 142.550 5 80 955 9 55 55 9 150 150 13.9001 142.550 4 77 954 13.8925 142.550 T 80 955 13.8854 142.514 4 88 9 297
1982272N11156 1982 83 WP MM MAC 1982-10-03 18:00:00 TS 14.1170 142.127 80 955 tokyo main 1803 1775 OOOO______P___ jtwc_wp WP231982 14.2000 142.200 90 2 14.1000 142.100 5 80 955 9 60 60 9 150 150 0 14.1000 142.100 4 77 954 14.1000 142.100 T 80 955 14.0848 142.135 4 92 9 298
1982272N11156 1982 83 WP MM MAC 1982-10-03 21:00:00 TS 14.3138 141.748 main 1764 1737 PPPP______P___ WP231982 14.3500 141.807 95 2 14.3423 141.742 5 80 947 9 60 60 9 150 150 14.2849 141.735 4 82 947 14.2999 141.692 T 85 947 14.2917 141.764 4 96 8 299
1982272N11156 1982 83 WP MM MAC 1982-10-04 00:00:00 TS 14.5200 141.380 80 940 tokyo main 1737 1699 OOOO______O___ jtwc_wp WP231982 14.5000 141.400 100 3 14.6000 141.400 5 80 940 9 60 60 9 150 150 0 14.5000 141.400 5 87 940 14.5000 141.300 ST 90 940 14.5000 141.400 4 100 9 302
1982272N11156 1982 83 WP MM MAC 1982-10-04 03:00:00 TS 14.7599 140.999 main 1701 1662 PPPP______P___ WP231982 14.7500 140.985 105 3 14.8499 141.015 5 82 930 9 67 67 9 175 175 14.7999 141.050 5 92 929 14.7000 140.892 ST 95 930 14.6997 141.055 4 106 9 303
1982272N11156 1982 83 WP MM MAC 1982-10-04 06:00:00 TS 14.9999 140.623 85 920 tokyo main 1662 1634 OOOO______P___ jtwc_wp WP231982 15.0000 140.600 110 3 15.1000 140.600 5 85 920 9 75 75 9 200 200 0 15.1000 140.700 5 97 919 14.9000 140.500 SuperT 100 920 14.8995 140.715 4 112 8 302
1982272N11156 1982 83 WP MM MAC 1982-10-04 09:00:00 TS 15.2073 140.269 main 1634 1596 PPPP______P___ WP231982 15.1572 140.315 117 4 15.3650 140.143 5 92 912 9 87 87 9 225 225 15.3223 140.372 5 106 913 15.0924 140.150 SuperT 105 915 15.0996 140.367 4 118 8 300
1982272N11156 1982 83 WP MM MAC 1982-10-04 12:00:00 TS 15.4000 139.900 100 905 tokyo main 1596 1558 OOOO______O___ jtwc_wp WP231982 15.3000 140.000 125 4 15.6000 139.700 5 100 905 9 100 100 9 250 250 0 15.5000 140.000 6 116 908 15.3000 139.800 SuperT 110 910 15.3000 140.000 4 125 9 296
1982272N11156 1982 83 WP MM MAC 1982-10-04 15:00:00 TS 15.5876 139.466 main 1558 1519 PPPP______P___ WP231982 15.4927 139.508 127 4 15.7649 139.335 5 100 902 9 100 100 9 250 250 15.6502 139.500 6 126 901 15.5425 139.400 SuperT 115 905 15.4879 139.588 4 128 9 294
1982272N11156 1982 83 WP MM MAC 1982-10-04 18:00:00 TS 15.7755 139.031 100 900 tokyo main 1511 1483 OOOO______P___ jtwc_wp WP231982 15.7000 139.000 130 4 15.9000 139.000 5 100 900 9 100 100 9 250 250 0 15.8000 139.000 6 136 895 15.8000 139.000 SuperT 120 900 15.6776 139.157 4 132 9 296
1982272N11156 1982 83 WP MM MAC 1982-10-04 21:00:00 TS 15.9666 138.654 main 1485 1450 PPPP______P___ WP231982 15.8923 138.627 135 4 16.0349 138.650 5 110 897 9 112 112 9 275 275 15.9774 138.620 6 136 895 16.0499 138.650 SuperT 125 897 15.8785 138.722 4 136 8 300
1982272N11156 1982 83 WP MM MAC 1982-10-05 00:00:00 TS 16.1800 138.300 120 895 tokyo main 1450 1426 OOOO______O___ jtwc_wp WP231982 16.1000 138.300 140 5 16.2000 138.300 5 120 895 9 125 125 9 300 300 0 16.2000 138.300 6 136 895 16.3000 138.300 SuperT 130 895 16.1000 138.300 4 140 8 304
1982272N11156 1982 83 WP MM MAC 1982-10-05 03:00:00 TS 16.4277 137.939 main 1416 1396 PPPP______P___ WP231982 16.3349 137.957 137 5 16.4274 137.957 5 120 900 9 125 125 9 300 300 16.4924 138.007 6 136 899 16.5425 137.892 SuperT 130 895 16.3412 137.882 4 137 9 307
1982272N11156 1982 83 WP MM MAC 1982-10-05 06:00:00 TS 16.7010 137.577 120 905 tokyo main 1396 1364 OOOO______P___ jtwc_wp WP231982 16.6000 137.600 135 4 16.7000 137.600 5 120 905 9 125 125 9 300 300 0 16.8000 137.700 6 136 904 16.8000 137.500 SuperT 130 895 16.6050 137.483 4 135 9 308
1982272N11156 1982 83 WP MM MAC 1982-10-05 09:00:00 TS 16.9808 137.197 main 1368 1347 PPPP______P___ WP231982 16.8851 137.185 132 4 16.9926 137.185 5 115 905 9 112 112 9 300 300 17.0575 137.315 6 131 908 17.0774 137.185 SuperT 125 902 16.8913 137.117 4 132 9 309
1982272N11156 1982 83 WP MM MAC 1982-10-05 12:00:00 TS 17.2800 136.840 110 905 tokyo main 1342 1327 OOOO______O___ jtwc_wp WP231982 17.2000 136.800 130 4 17.3000 136.800 5 110 905 9 100 100 9 300 300 0 17.3000 136.900 6 126 913 17.4000 136.900 SuperT 120 910 17.2000 136.800 4 130 9 314
1982272N11156 1982 83 WP MM MAC 1982-10-05 15:00:00 TS 17.6054 136.521 main 1327 1318 PPPP______P___ WP231982 17.5424 136.512 127 4 17.6224 136.520 5 105 912 9 100 100 9 300 300 17.5351 136.462 6 121 915 17.8151 136.570 SuperT 115 912 17.5119 136.541 4 126 9 320
1982272N11156 1982 83 WP MM MAC 1982-10-05 18:00:00 TS 17.9294 136.266 100 920 tokyo main 1323 1315 OOOO______P___ jtwc_wp WP231982 17.9000 136.300 125 4 17.9000 136.300 5 100 920 9 100 100 9 300 300 0 17.8000 136.100 6 116 917 18.2000 136.300 SuperT 110 915 17.8471 136.332 4 122 7 325
1982272N11156 1982 83 WP MM MAC 1982-10-05 21:00:00 TS 18.1877 136.096 main 1320 1316 PPPP______P___ WP231982 18.2274 136.150 120 4 17.9975 136.085 5 100 920 9 100 100 9 300 300 18.1124 135.905 6 116 918 18.3924 136.185 SuperT 105 917 18.2088 136.157 4 118 6 333
1982272N11156 1982 83 WP MM MAC 1982-10-06 00:00:00 TS 18.5000 135.960 100 920 tokyo main 1328 1319 OOOO______O___ jtwc_wp WP231982 18.6000 136.000 115 4 18.2000 135.900 5 100 920 9 100 100 9 300 300 0 18.5000 135.800 6 116 919 18.6000 136.100 SuperT 100 920 18.6000 136.000 4 115 9 339
1982272N11156 1982 83 WP MM MAC 1982-10-06 03:00:00 TS 18.9864 135.776 main 1339 1337 PPPP______P___ WP231982 19.0926 135.735 117 4 18.8050 135.735 5 100 920 9 112 112 9 300 300 18.9925 135.692 6 116 920 19.0126 135.908 SuperT 100 920 19.0294 135.812 4 118 11 342
1982272N11156 1982 83 WP MM MAC 1982-10-06 06:00:00 TS 19.5170 135.608 100 920 tokyo main 1347 1329 OOOO______P___ jtwc_wp WP231982 19.6000 135.500 120 4 19.5000 135.600 5 100 920 9 125 125 9 300 300 0 19.5000 135.600 6 116 921 19.5000 135.700 SuperT 100 920 19.4850 135.640 4 122 10 344
1982272N11156 1982 83 WP MM MAC 1982-10-06 09:00:00 TS 19.9646 135.486 main 1319 1273 PPPP______P___ WP231982 20.0149 135.420 125 4 19.9950 135.485 5 100 917 9 125 125 9 300 300 19.9075 135.500 6 116 917 19.9575 135.527 SuperT 105 917 19.9482 135.499 4 126 9 347
1982272N11156 1982 83 WP MM MAC 1982-10-06 12:00:00 TS 20.3800 135.400 100 915 tokyo main 1273 1228 OOOO______O___ jtwc_wp WP231982 20.4000 135.400 130 4 20.4000 135.400 5 100 915 9 125 125 9 300 300 0 20.3000 135.400 6 116 913 20.4000 135.400 SuperT 110 915 20.4000 135.400 4 130 8 349
1982272N11156 1982 83 WP MM MAC 1982-10-06 15:00:00 TS 20.7800 135.322 main 1228 1196 PPPP______P___ WP231982 20.8000 135.335 127 4 20.7575 135.335 5 100 912 9 125 125 9 300 300 20.7500 135.278 6 116 911 20.8150 135.327 SuperT 105 917 20.7777 135.337 4 127 8 352
1982272N11156 1982 83 WP MM MAC 1982-10-06 18:00:00 TS 21.1695 135.284 100 910 tokyo main 1186 1155 OOOO______P___ jtwc_wp WP231982 21.2000 135.300 125 4 21.1000 135.300 5 100 910 9 125 125 9 300 300 0 21.2000 135.200 6 116 910 21.2000 135.300 SuperT 100 920 21.1474 135.318 4 125 7 357
1982272N11156 1982 83 WP MM MAC 1982-10-06 21:00:00 TS 21.5212 135.283 main 1155 1114 PPPP______P___ WP231982 21.5475 135.320 122 4 21.4475 135.270 5 100 915 9 125 125 9 300 300 21.5700 135.213 6 116 914 21.4975 135.270 SuperT 100 920 21.5434 135.340 4 122 8 4
1982272N11156 1982 83 WP MM MAC 1982-10-07 00:00:00 TS 21.9600 135.340 100 920 tokyo main 1104 1047 OOOO______O___ jtwc_wp WP231982 22.0000 135.400 120 4 21.9000 135.300 5 100 920 9 125 125 9 300 300 0 22.0000 135.300 6 116 919 21.9000 135.300 SuperT 100 920 22.0000 135.400 4 120 11 8
1982272N11156 1982 83 WP MM MAC 1982-10-07 03:00:00 TS 22.6094 135.452 main 1051 986 PPPP______P___ WP231982 22.7351 135.542 117 4 22.5625 135.420 5 100 920 9 125 125 9 300 300 22.6125 135.428 6 111 920 22.6050 135.420 SuperT 100 920 22.5317 135.450 4 118 14 10
1982272N11156 1982 83 WP MM MAC 1982-10-07 06:00:00 TS 23.3259 135.608 100 920 tokyo main 986 933 OOOO______P___ jtwc_wp WP231982 23.5000 135.700 115 4 23.3000 135.600 5 100 920 9 125 125 9 300 300 0 23.3000 135.600 6 106 922 23.4000 135.600 SuperT 100 920 23.1297 135.540 4 117 14 12
1982272N11156 1982 83 WP MM MAC 1982-10-07 09:00:00 TS 23.9415 135.755 main 938 887 PPPP______P___ WP231982 23.9923 135.764 115 4 23.9424 135.778 5 100 922 9 137 137 9 300 300 23.9349 135.778 6 106 923 24.0499 135.771 SuperT 100 922 23.7878 135.685 4 116 13 14
1982272N11156 1982 83 WP MM MAC 1982-10-07 12:00:00 TS 24.5800 135.960 100 925 tokyo main 882 826 OOOO______O___ jtwc_wp WP231982 24.5000 135.900 115 4 24.6000 136.000 5 100 925 9 150 150 9 300 300 0 24.6000 136.000 6 106 925 24.7000 136.000 SuperT 100 925 24.5000 135.900 4 115 15 18
1982272N11156 1982 83 WP MM MAC 1982-10-07 15:00:00 TS 25.3132 136.258 main 832 778 PPPP______P___ WP231982 25.2553 136.262 112 3 25.3274 136.270 5 100 927 9 150 150 9 300 300 25.3349 136.270 6 101 927 25.4276 136.328 SuperT 97 927 25.2209 136.161 4 113 16 21
1982272N11156 1982 83 WP MM MAC 1982-10-07 18:00:00 TS 26.0989 136.619 100 930 tokyo main 778 740 OOOO______P___ jtwc_wp WP231982 26.1000 136.700 110 3 26.1000 136.600 5 100 930 9 150 150 9 300 300 0 26.1000 136.600 5 97 929 26.2000 136.700 ST 95 930 25.9943 136.497 4 112 17 23
1982272N11156 1982 83 WP MM MAC 1982-10-07 21:00:00 TS 26.8609 136.976 main 734 662 PPPP______P___ WP231982 26.8622 137.037 110 3 26.8624 136.971 5 95 932 9 150 150 9 300 300 26.7972 136.949 5 92 933 26.9621 137.014 ST 92 932 26.8205 136.909 4 111 18 24
1982272N11156 1982 83 WP MM MAC 1982-10-08 00:00:00 TS 27.7000 137.400 90 935 tokyo main 654 568 OOOO______O___ jtwc_wp WP231982 27.7000 137.400 110 3 27.7000 137.400 5 90 935 9 150 150 9 300 300 0 27.6000 137.400 5 87 937 27.8000 137.400 ST 90 935 27.7000 137.400 4 110 20 24
1982272N11156 1982 83 WP MM MAC 1982-10-08 03:00:00 TS 28.7058 137.901 main 561 485 PPPP______P___ WP231982 28.7345 137.833 107 3 28.6767 137.827 5 90 935 9 150 150 9 325 325 28.6702 138.012 5 87 942 28.7847 137.933 ST 90 935 28.6630 137.900 4 107 23 25
1982272N11156 1982 83 WP MM MAC 1982-10-08 06:00:00 TS 29.7537 138.517 90 935 tokyo main 475 436 OOOO______P___ jtwc_wp WP231982 29.8000 138.400 105 3 29.7000 138.400 5 90 935 9 150 150 9 350 350 0 29.8000 138.700 5 87 948 29.8000 138.600 ST 90 935 29.6686 138.486 4 105 23 30
1982272N11156 1982 83 WP MM MAC 1982-10-08 09:00:00 TS 30.7025 139.212 main 436 352 PPPP______P___ WP231982 30.7214 139.097 102 3 30.6801 139.225 5 87 937 9 150 150 9 350 350 30.7549 139.243 5 82 950 30.6913 139.314 ST 87 940 30.6650 139.179 4 102 23 36
1982272N11156 1982 83 WP MM MAC 1982-10-08 12:00:00 TS 31.6200 140.080 85 940 tokyo main 355 289 OOOO______O___ jtwc_wp WP231982 31.6000 140.000 100 3 31.6000 140.200 5 85 940 9 150 150 9 350 350 0 31.7000 140.000 4 77 952 31.6000 140.200 ST 85 945 31.6000 140.000 4 100 25 42
1982272N11156 1982 83 WP MM MAC 1982-10-08 15:00:00 TS 32.5958 141.202 main 283 265 PPPP______P___ WP231982 32.5536 141.168 97 3 32.4436 141.150 5 82 950 9 150 150 9 350 350 32.8437 141.355 4 72 954 32.7040 141.381 ST 82 950 32.4340 140.959 4 96 27 47
1982272N11156 1982 83 WP MM MAC 1982-10-08 18:00:00 TS 33.4576 142.417 80 960 tokyo main 263 263 OOOO______P___ jtwc_wp WP231982 33.4000 142.400 95 2 33.2000 142.200 5 80 960 9 150 150 9 350 350 0 33.8000 142.800 4 68 957 33.7000 142.600 T 80 955 33.1787 142.033 4 92 24 52
1982272N11156 1982 83 WP MM MAC 1982-10-08 21:00:00 TS 34.0810 143.510 main 296 296 PPPP______P___ WP231982 34.0160 143.441 90 2 33.9327 143.426 5 962 9 9 34.2673 143.788 4 68 959 34.3569 143.582 T 77 960 33.8588 143.191 4 88 21 59
1982272N11156 1982 83 WP MM MAC 1982-10-09 00:00:00 MX 34.5231 144.554 965 tokyo main 361 361 OOOO______O___ jtwc_wp WP231982 34.5000 144.400 85 2 34.5000 144.700 6 965 0 0 0 34.5000 144.600 4 68 962 34.8000 144.400 T 75 965 34.5000 144.400 4 85 19 67
1982272N11156 1982 83 WP MM MAC 1982-10-09 03:00:00 MX 34.8081 145.607 main 437 437 PPP___________ WP231982 34.9543 145.347 82 1 34.7715 145.892 6 968 0 0 34.7716 145.451 4 58 966 T 4 18 73
1982272N11156 1982 83 WP MM MAC 1982-10-09 06:00:00 MX 35.0444 146.611 972 tokyo main 521 521 OOO___________ jtwc_wp WP231982 35.4000 146.300 80 1 35.0000 147.000 6 972 0 0 0 35.0000 146.300 3 48 970 4 17 70
1982272N11156 1982 83 WP MM MAC 1982-10-09 09:00:00 MX 35.3939 147.602 main 605 605 _PP___________ WP231982 -1 35.5361 148.020 6 976 0 0 35.2518 147.184 3 48 972 4 17 67
1982272N11156 1982 83 WP MM MAC 1982-10-09 12:00:00 MX 35.7000 148.550 980 tokyo main 692 692 _OO___________ -1 36.0000 149.000 6 980 0 0 0 35.4000 148.100 3 48 974 16 77
1982272N11156 1982 83 WP MM MAC 1982-10-09 15:00:00 MX 35.7549 149.556 main 768 768 _PP___________ -1 36.1506 150.076 6 984 0 0 35.3592 149.036 3 43 977 16 94
1982272N11156 1982 83 WP MM MAC 1982-10-09 18:00:00 MX 35.6000 150.500 988 tokyo main 852 852 _OO___________ -1 36.0000 151.000 6 988 0 0 0 35.2000 150.000 2 38 980 15 108
1982272N11156 1982 83 WP MM MAC 1982-10-09 21:00:00 MX 35.2904 151.291 main 931 931 _PP___________ -1 35.5360 151.576 6 992 0 0 35.0447 151.007 2 38 988 14 120
1982272N11156 1982 83 WP MM MAC 1982-10-10 00:00:00 ET 34.9000 152.000 996 tokyo main 1008 1008 _OO___________ -1 35.0000 152.000 6 996 0 0 0 34.8000 152.000 9 38 996 14 122
1982272N11156 1982 83 WP MM MAC 1982-10-10 03:00:00 ET 34.5590 152.692 main 1076 1076 _PP___________ -1 34.7123 152.499 6 998 0 0 34.4058 152.885 9 38 998 13 119
1982272N11156 1982 83 WP MM MAC 1982-10-10 06:00:00 ET 34.2857 153.343 1000 tokyo main 1136 1136 _OO___________ -1 34.5000 153.000 6 1000 0 0 0 34.0000 153.800 9 38 1000 11 114
1982272N11156 1982 83 WP MM MAC 1982-10-10 09:00:00 ET 34.0958 153.951 main 1204 1204 _PP___________ -1 34.2873 153.499 6 1002 0 0 33.7128 154.855 9 33 1002 10 114
1982272N11156 1982 83 WP MM MAC 1982-10-10 12:00:00 ET 33.9000 154.400 1004 tokyo main 1245 1245 _OO___________ -1 34.0000 154.000 6 1004 0 0 0 33.5000 156.000 9 29 1004 7 141
1982272N11156 1982 83 WP MM MAC 1982-10-10 15:00:00 ET 33.5373 154.500 main 1264 1264 _P____________ -1 33.5373 154.500 6 1006 0 0 9 10 151
1982272N11156 1982 83 WP MM MAC 1982-10-10 18:00:00 ET 33.0000 155.000 1008 tokyo main 1324 1324 _O____________ -1 33.0000 155.000 6 1008 0 0 0 14 142
1982272N11156 1982 83 WP MM MAC 1982-10-10 21:00:00 ET 32.4252 155.538 main 1390 1390 _P____________ -1 32.4252 155.538 6 1010 0 0 13 140
1982272N11156 1982 83 WP MM MAC 1982-10-11 00:00:00 ET 32.0000 156.000 1012 tokyo main 1449 1449 _O____________ -1 32.0000 156.000 6 1012 0 0 0 8 128
1982272N11156 1982 83 WP MM MAC 1982-10-11 03:00:00 ET 31.9247 156.286 main 1480 1480 _P____________ -1 31.9247 156.286 6 1013 0 0 4 90
1982272N11156 1982 83 WP MM MAC 1982-10-11 06:00:00 ET 32.0000 156.500 1014 tokyo main 1493 1493 _O____________ -1 32.0000 156.500 6 1014 0 0 0 4 80
1982272N11156 1982 83 WP MM MAC 1982-10-11 09:00:00 ET 32.0001 156.788 main 1520 1520 _P____________ -1 32.0001 156.788 6 1014 0 0 4 90
1982272N11156 1982 83 WP MM MAC 1982-10-11 12:00:00 ET 32.0000 157.000 1014 tokyo main 1537 1537 _O____________ -1 32.0000 157.000 6 1014 0 0 0 2 90
1982272N11156 1982 83 WP MM MAC 1982-10-11 15:00:00 ET 31.9999 157.038 main 1537 1537 _P____________ -1 31.9999 157.038 6 1014 0 0 0 0
1982272N11156 1982 83 WP MM MAC 1982-10-11 18:00:00 ET 32.0000 157.000 1014 tokyo main 1537 1537 _O____________ -1 32.0000 157.000 6 1014 0 0 0 0 270
1982272N11156 1982 83 WP MM MAC 1982-10-11 21:00:00 ET 32.0000 157.000 main 1537 1537 _P____________ -1 32.0000 157.000 6 1014 0 0 0 0
1982272N11156 1982 83 WP MM MAC 1982-10-12 00:00:00 ET 32.0000 157.000 1014 tokyo main 1537 1537 _O____________ -1 32.0000 157.000 6 1014 0 0 0 0 0
1982272N11156 1982 83 WP MM MAC 1982-10-12 03:00:00 ET 32.0000 157.000 main 1537 1537 _P____________ -1 32.0000 157.000 6 1015 0 0 0 0
1982272N11156 1982 83 WP MM MAC 1982-10-12 06:00:00 ET 32.0000 157.000 1016 tokyo main 1537 1537 _O____________ -1 32.0000 157.000 6 1016 0 0 0 0 0
1982272N11156 1982 83 WP MM MAC 1982-10-12 09:00:00 ET 32.0000 157.000 main 1537 1537 _P____________ -1 32.0000 157.000 6 1017 0 0 0 0
1982272N11156 1982 83 WP MM MAC 1982-10-12 12:00:00 ET 32.0000 157.000 1018 tokyo main 1537 _O____________ -1 32.0000 157.000 6 1018 0 0 0 0 0

Digital Typhoon Data and Search

About IBTrACS Database

This database is a web-friendly format of International Best Track Archive for Climate Stewardship (IBTrACS), a global best track data archive curated by NOAA dating back to 1842.

Updated: 2021-12-03